ADDS METAR Data INFO
IDs: Format: Raw Decoded Include TAF

Data at: 0102 UTC 22 Oct 2017

KBAM 220055Z AUTO 24004KT 10SM SCT060 SCT075 SCT090 12/M02 A3025 RMK AO1
KBAM 220035Z AUTO 26007KT 10SM CLR 12/M02 A3025 RMK AO1
KBAM 220015Z AUTO 24006KT 10SM SCT090 12/M02 A3024 RMK AO1
KBAM 212355Z AUTO 24010KT 10SM BKN090 12/M02 A3024 RMK AO1
KBAM 212335Z AUTO 25006KT 10SM OVC090 12/M03 A3024 RMK AO1
KBAM 212315Z AUTO 25010KT 10SM SCT050 OVC090 12/M04 A3024 RMK AO1
KBAM 212255Z AUTO 25012KT 10SM BKN050 BKN070 OVC100 13/M04 A3024 RMK AO1
KBAM 212235Z AUTO 25014KT 10SM SCT050 BKN070 OVC100 12/M05 A3024 RMK AO1
KBAM 212215Z AUTO 25012G18KT 10SM SCT050 OVC100 12/M05 A3024 RMK AO1
KBAM 212155Z AUTO 25012KT 10SM SCT050 SCT080 OVC100 12/M05 A3023 RMK AO1
KBAM 212135Z AUTO 26013KT 10SM SCT080 OVC090 12/M06 A3023 RMK AO1
KBAM 212115Z AUTO 26014KT 10SM OVC090 12/M06 A3023 RMK AO1
KBAM 212055Z AUTO 25011G16KT 10SM OVC100 12/M06 A3023 RMK AO1
KBAM 212035Z AUTO 24012G19KT 10SM SCT055 SCT085 OVC100 12/M06 A3023 RMK AO1
KBAM 212015Z AUTO 25010KT 10SM BKN055 OVC100 12/M06 A3023 RMK AO1
KBAM 211955Z AUTO 26011KT 10SM OVC055 11/M06 A3024 RMK AO1
KBAM 211935Z AUTO 27010G14KT 10SM OVC055 11/M06 A3024 RMK AO1
KBAM 211915Z AUTO 25006KT 10SM OVC065 11/M05 A3024 RMK AO1
KBAM 211855Z AUTO 23010KT 10SM OVC065 11/M06 A3023 RMK AO1
KBAM 211835Z AUTO 25010KT 10SM OVC075 11/M06 A3023 RMK AO1
KBAM 211815Z AUTO 23011G15KT 10SM SCT075 BKN095 11/M05 A3023 RMK AO1
KBAM 211755Z AUTO 00000KT 10SM SCT095 09/M03 A3022 RMK AO1
KBAM 211735Z AUTO 16005KT 10SM SCT085 07/M03 A3023 RMK AO1
KBAM 211715Z AUTO 17004KT 10SM SCT085 07/M03 A3023 RMK AO1
KBAM 211655Z AUTO 17003KT 10SM CLR 06/M03 A3023 RMK AO1
KBAM 211635Z AUTO 04004KT 10SM CLR 05/M03 A3023 RMK AO1
KBAM 211615Z AUTO 00000KT 10SM CLR 03/M04 A3022 RMK AO1
KBAM 211555Z AUTO 00000KT 10SM CLR 01/M05 A3022 RMK AO1
KBAM 211535Z AUTO 00000KT 10SM CLR 00/M05 A3022 RMK AO1
KBAM 211515Z AUTO 00000KT 10SM CLR M01/M06 A3020 RMK AO1
KBAM 211455Z AUTO 06003KT 10SM CLR M03/M07 A3021 RMK AO1
KBAM 211435Z AUTO 10004KT 10SM CLR M06/M08 A3020 RMK AO1
KBAM 211415Z AUTO 12004KT 10SM CLR M06/M08 A3019 RMK AO1
KBAM 211355Z AUTO 08004KT 10SM CLR M05/M07 A3019 RMK AO1
KBAM 211335Z AUTO 00000KT 10SM CLR M04/M07 A3019 RMK AO1
KBAM 211315Z AUTO 06006KT 10SM CLR M05/M07 A3018 RMK AO1
KBAM 211255Z AUTO 10005KT 10SM CLR M06/M08 A3017 RMK AO1
KBAM 211235Z AUTO 16005KT 10SM CLR M04/M07 A3016 RMK AO1
KBAM 211215Z AUTO 16003KT 10SM CLR M04/M07 A3016 RMK AO1
KBAM 211155Z AUTO 17004KT 10SM CLR M04/M08 A3016 RMK AO1
KBAM 211135Z AUTO 16003KT 10SM CLR M03/M07 A3015 RMK AO1
KBAM 211115Z AUTO 18006KT 10SM CLR M03/M07 A3014 RMK AO1
KBAM 211055Z AUTO 16005KT 10SM CLR M03/M07 A3014 RMK AO1
KBAM 211035Z AUTO 19006KT 10SM CLR M02/M06 A3013 RMK AO1
KBAM 211015Z AUTO 20004KT 10SM CLR M03/M07 A3014 RMK AO1
KBAM 210955Z AUTO 15004KT 10SM CLR M03/M07 A3014 RMK AO1
KBAM 210935Z AUTO 15005KT 10SM CLR M03/M07 A3014 RMK AO1
KBAM 210915Z AUTO 21003KT 10SM CLR M02/M07 A3013 RMK AO1
KBAM 210855Z AUTO 00000KT 10SM CLR M02/M07 A3013 RMK AO1
KBAM 210835Z AUTO 00000KT 10SM CLR M01/M06 A3012 RMK AO1
KBAM 210815Z AUTO 00000KT 10SM CLR M02/M07 A3011 RMK AO1
KBAM 210755Z AUTO 00000KT 10SM CLR 00/M07 A3011 RMK AO1
KBAM 210735Z AUTO 00000KT 10SM CLR 00/M06 A3010 RMK AO1
KBAM 210715Z AUTO 00000KT 10SM CLR 00/M06 A3010 RMK AO1
KBAM 210655Z AUTO 21003KT 10SM CLR 00/M06 A3010 RMK AO1
KBAM 210635Z AUTO 00000KT 10SM CLR 02/M06 A3009 RMK AO1
KBAM 210615Z AUTO 00000KT 10SM CLR 00/M06 A3009 RMK AO1
KBAM 210555Z AUTO 14005KT 10SM CLR 00/M06 A3008 RMK AO1
KBAM 210535Z AUTO 23005KT 10SM SCT100 01/M06 A3007 RMK AO1
KBAM 210515Z AUTO 21004KT 10SM BKN100 00/M07 A3007 RMK AO1
KBAM 210455Z AUTO 14007KT 10SM SCT100 00/M08 A3007 RMK AO1
KBAM 210435Z AUTO 00000KT 10SM OVC100 02/M07 A3006 RMK AO1
KBAM 210415Z AUTO 00000KT 10SM BKN100 02/M07 A3006 RMK AO1
KBAM 210355Z AUTO 00000KT 10SM CLR 03/M07 A3005 RMK AO1
KBAM 210335Z AUTO 10003KT 10SM CLR 03/M07 A3005 RMK AO1
KBAM 210315Z AUTO 25006KT 10SM CLR 04/M07 A3003 RMK AO1
KBAM 210255Z AUTO 28003KT 10SM CLR 06/M07 A3003 RMK AO1
KBAM 210235Z AUTO 21005KT 10SM CLR 05/M07 A3002 RMK AO1
KBAM 210215Z AUTO 00000KT 10SM CLR 06/M08 A3002 RMK AO1
KBAM 210155Z AUTO 30008KT 10SM CLR 07/M07 A3000 RMK AO1
KBAM 210135Z AUTO 30009G18KT 10SM CLR 07/M07 A2998 RMK AO1
KBAM 210115Z AUTO 29012KT 10SM CLR 07/M07 A2998 RMK AO1
KBAM 210055Z AUTO 29013KT 10SM SCT100 08/M06 A2998 RMK AO1
KBAM 210035Z AUTO 30012G15KT 10SM SCT110 08/M06 A2998 RMK AO1
KBAM 210015Z AUTO 30013KT 10SM SCT095 SCT110 08/M06 A2998 RMK AO1
KBAM 202355Z AUTO 31008KT 10SM SCT070 SCT085 09/M06 A2997 RMK AO1
KBAM 202335Z AUTO 30011KT 10SM BKN070 OVC085 11/M07 A2996 RMK AO1
KBAM 202315Z AUTO 28012G16KT 10SM BKN070 OVC090 11/M08 A2996 RMK AO1
KBAM 202255Z AUTO 29011G15KT 10SM SCT070 OVC090 10/M08 A2996 RMK AO1
KBAM 202235Z AUTO 27011G18KT 10SM SCT070 OVC090 11/M07 A2995 RMK AO1
KBAM 202215Z AUTO 28010KT 10SM SCT070 BKN090 11/M07 A2995 RMK AO1
KBAM 202155Z AUTO 30014G19KT 10SM SCT070 BKN080 11/M09 A2994 RMK AO1
KBAM 202135Z AUTO 30015G21KT 10SM SCT065 SCT080 11/M08 A2994 RMK AO1
KBAM 202115Z AUTO 29015G23KT 10SM CLR 11/M08 A2993 RMK AO1
KBAM 202055Z AUTO 29017G21KT 10SM SCT075 11/M08 A2993 RMK AO1
KBAM 202035Z AUTO 27014G22KT 10SM SCT065 SCT075 11/M08 A2994 RMK AO1
KBAM 202015Z AUTO 28016G23KT 10SM SCT065 SCT075 11/M08 A2995 RMK AO1
KBAM 201955Z AUTO 30016G24KT 10SM SCT065 11/M07 A2994 RMK AO1
KBAM 201935Z AUTO 28015G23KT 10SM BKN065 11/M08 A2994 RMK AO1
KBAM 201915Z AUTO 30014KT 10SM BKN065 BKN075 09/M07 A2994 RMK AO1
KBAM 201855Z AUTO 30009G17KT 10SM SCT055 BKN065 09/M07 A2995 RMK AO1
KBAM 201835Z AUTO 30015G19KT 10SM SCT050 OVC065 08/M06 A2995 RMK AO1
KBAM 201815Z AUTO 31010G15KT 10SM SCT049 BKN065 08/M05 A2993 RMK AO1
KBAM 201755Z AUTO 31012G17KT 10SM SCT055 08/M05 A2992 RMK AO1
KBAM 201735Z AUTO 28013G20KT 10SM CLR 08/M05 A2993 RMK AO1
KBAM 201715Z AUTO 28012G20KT 10SM CLR 09/M05 A2992 RMK AO1
KBAM 201655Z AUTO 29010G18KT 10SM SCT048 SCT050 07/M03 A2991 RMK AO1
KBAM 201635Z AUTO 23009G15KT 10SM CLR 08/M01 A2990 RMK AO1
KBAM 201615Z AUTO 24014G21KT 10SM SCT043 07/00 A2989 RMK AO1
KBAM 201555Z AUTO 26013KT 10SM SCT047 SCT050 07/00 A2988 RMK AO1
KBAM 201535Z AUTO 25010KT 10SM SCT031 SCT039 BKN050 05/01 A2987 RMK AO1
KBAM 201515Z AUTO 24005KT 10SM BKN035 OVC044 05/01 A2987 RMK AO1
KBAM 201455Z AUTO 25005KT 10SM OVC035 05/01 A2986 RMK AO1
KBAM 201435Z AUTO 25004KT 10SM SCT031 BKN043 OVC090 04/01 A2985 RMK AO1
KBAM 201415Z AUTO 00000KT 10SM SCT019 SCT033 OVC090 03/02 A2984 RMK AO1
KBAM 201355Z AUTO 00000KT 10SM SCT017 BKN065 OVC090 03/01 A2985 RMK AO1
KBAM 201335Z AUTO 01003KT 10SM BKN027 BKN033 OVC050 05/01 A2984 RMK AO1
KBAM 201315Z AUTO 36005KT 10SM SCT029 SCT034 OVC050 05/01 A2983 RMK AO1